sensor_id;sensor_type;location;lat;lon;timestamp;pressure;altitude;pressure_sealevel;temperature;humidity
61014;BME280;46899;47.542;19.082;2023-05-25T00:00:21;100572.37;;;16.04;100.00
61014;BME280;46899;47.542;19.082;2023-05-25T00:03:24;100568.66;;;16.08;100.00
61014;BME280;46899;47.542;19.082;2023-05-25T00:06:32;100572.37;;;16.04;100.00
61014;BME280;46899;47.542;19.082;2023-05-25T00:09:34;100576.34;;;16.11;100.00
61014;BME280;46899;47.542;19.082;2023-05-25T00:12:37;100570.34;;;16.09;100.00
61014;BME280;46899;47.542;19.082;2023-05-25T00:15:40;100577.31;;;16.10;100.00
61014;BME280;46899;47.542;19.082;2023-05-25T00:18:43;100574.56;;;15.96;100.00
61014;BME280;46899;47.542;19.082;2023-05-25T00:21:46;100579.22;;;15.91;100.00
61014;BME280;46899;47.542;19.082;2023-05-25T00:24:49;100572.19;;;15.92;100.00
61014;BME280;46899;47.542;19.082;2023-05-25T00:27:52;100574.62;;;15.95;100.00
61014;BME280;46899;47.542;19.082;2023-05-25T00:30:54;100583.97;;;16.00;100.00
61014;BME280;46899;47.542;19.082;2023-05-25T00:33:57;100575.06;;;15.87;100.00
61014;BME280;46899;47.542;19.082;2023-05-25T00:37:01;100574.72;;;15.93;100.00
61014;BME280;46899;47.542;19.082;2023-05-25T00:40:06;100580.88;;;15.92;100.00
61014;BME280;46899;47.542;19.082;2023-05-25T00:43:10;100577.59;;;15.89;100.00
61014;BME280;46899;47.542;19.082;2023-05-25T00:46:13;100581.22;;;15.86;100.00
61014;BME280;46899;47.542;19.082;2023-05-25T00:49:17;100586.22;;;15.91;100.00
61014;BME280;46899;47.542;19.082;2023-05-25T00:52:23;100585.22;;;15.93;100.00
61014;BME280;46899;47.542;19.082;2023-05-25T00:55:28;100592.84;;;15.98;100.00
61014;BME280;46899;47.542;19.082;2023-05-25T00:58:33;100592.50;;;15.88;100.00
61014;BME280;46899;47.542;19.082;2023-05-25T01:01:37;100589.34;;;15.82;100.00
61014;BME280;46899;47.542;19.082;2023-05-25T01:04:42;100587.81;;;15.78;100.00
61014;BME280;46899;47.542;19.082;2023-05-25T01:07:46;100599.00;;;15.64;100.00
61014;BME280;46899;47.542;19.082;2023-05-25T01:10:50;100601.06;;;15.59;100.00
61014;BME280;46899;47.542;19.082;2023-05-25T01:13:53;100596.44;;;15.47;100.00
61014;BME280;46899;47.542;19.082;2023-05-25T01:16:57;100596.00;;;15.37;100.00
61014;BME280;46899;47.542;19.082;2023-05-25T01:20:00;100601.72;;;15.28;100.00
61014;BME280;46899;47.542;19.082;2023-05-25T01:23:14;100604.78;;;15.36;100.00
61014;BME280;46899;47.542;19.082;2023-05-25T01:26:18;100603.97;;;15.19;100.00
61014;BME280;46899;47.542;19.082;2023-05-25T01:29:23;100605.41;;;15.07;100.00
61014;BME280;46899;47.542;19.082;2023-05-25T01:32:27;100609.16;;;15.01;100.00
61014;BME280;46899;47.542;19.082;2023-05-25T01:35:30;100612.28;;;15.10;100.00
61014;BME280;46899;47.542;19.082;2023-05-25T01:38:34;100615.31;;;15.00;100.00
61014;BME280;46899;47.542;19.082;2023-05-25T01:41:37;100614.72;;;14.95;100.00
61014;BME280;46899;47.542;19.082;2023-05-25T01:44:40;100627.47;;;14.84;100.00
61014;BME280;46899;47.542;19.082;2023-05-25T01:47:44;100620.69;;;14.80;100.00
61014;BME280;46899;47.542;19.082;2023-05-25T01:54:00;100615.34;;;14.65;100.00
61014;BME280;46899;47.542;19.082;2023-05-25T01:57:06;100607.53;;;14.63;100.00
61014;BME280;46899;47.542;19.082;2023-05-25T02:00:09;100607.69;;;14.60;100.00
61014;BME280;46899;47.542;19.082;2023-05-25T02:03:14;100606.00;;;14.59;100.00
61014;BME280;46899;47.542;19.082;2023-05-25T02:06:17;100617.69;;;14.52;100.00
61014;BME280;46899;47.542;19.082;2023-05-25T02:09:20;100616.28;;;14.45;100.00
61014;BME280;46899;47.542;19.082;2023-05-25T02:12:22;100609.31;;;14.44;100.00
61014;BME280;46899;47.542;19.082;2023-05-25T02:15:26;100613.00;;;14.40;100.00
61014;BME280;46899;47.542;19.082;2023-05-25T02:18:29;100612.09;;;14.41;100.00
61014;BME280;46899;47.542;19.082;2023-05-25T02:21:32;100614.09;;;14.36;100.00
61014;BME280;46899;47.542;19.082;2023-05-25T02:24:34;100625.53;;;14.33;100.00
61014;BME280;46899;47.542;19.082;2023-05-25T02:27:37;100617.16;;;14.25;100.00
61014;BME280;46899;47.542;19.082;2023-05-25T02:30:40;100624.00;;;14.28;100.00
61014;BME280;46899;47.542;19.082;2023-05-25T02:33:42;100624.09;;;14.26;100.00
61014;BME280;46899;47.542;19.082;2023-05-25T02:36:45;100630.97;;;14.29;100.00
61014;BME280;46899;47.542;19.082;2023-05-25T02:39:47;100628.59;;;14.23;100.00
61014;BME280;46899;47.542;19.082;2023-05-25T02:42:50;100625.50;;;14.15;100.00
61014;BME280;46899;47.542;19.082;2023-05-25T02:45:53;100632.72;;;14.10;100.00
61014;BME280;46899;47.542;19.082;2023-05-25T02:48:55;100631.75;;;14.11;100.00
61014;BME280;46899;47.542;19.082;2023-05-25T02:51:59;100631.72;;;14.12;100.00
61014;BME280;46899;47.542;19.082;2023-05-25T02:55:01;100631.16;;;14.06;100.00
61014;BME280;46899;47.542;19.082;2023-05-25T02:58:05;100634.75;;;14.03;100.00
61014;BME280;46899;47.542;19.082;2023-05-25T03:01:08;100638.28;;;14.21;100.00
61014;BME280;46899;47.542;19.082;2023-05-25T03:04:12;100640.47;;;14.11;100.00
61014;BME280;46899;47.542;19.082;2023-05-25T03:07:15;100631.28;;;14.03;100.00
61014;BME280;46899;47.542;19.082;2023-05-25T03:10:18;100641.00;;;13.99;100.00
61014;BME280;46899;47.542;19.082;2023-05-25T03:13:20;100637.69;;;13.96;100.00
61014;BME280;46899;47.542;19.082;2023-05-25T03:16:23;100645.44;;;13.99;100.00
61014;BME280;46899;47.542;19.082;2023-05-25T03:19:27;100640.97;;;14.01;100.00
61014;BME280;46899;47.542;19.082;2023-05-25T03:22:30;100647.75;;;14.05;100.00
61014;BME280;46899;47.542;19.082;2023-05-25T03:25:32;100650.44;;;14.03;100.00
61014;BME280;46899;47.542;19.082;2023-05-25T03:28:35;100652.09;;;14.06;100.00
61014;BME280;46899;47.542;19.082;2023-05-25T03:31:38;100655.47;;;14.08;100.00
61014;BME280;46899;47.542;19.082;2023-05-25T03:34:41;100654.97;;;14.18;100.00
61014;BME280;46899;47.542;19.082;2023-05-25T03:37:45;100653.63;;;14.30;100.00
61014;BME280;46899;47.542;19.082;2023-05-25T03:40:48;100658.44;;;14.39;100.00
61014;BME280;46899;47.542;19.082;2023-05-25T03:43:50;100661.84;;;14.41;100.00
61014;BME280;46899;47.542;19.082;2023-05-25T03:46:53;100659.84;;;14.46;100.00
61014;BME280;46899;47.542;19.082;2023-05-25T03:49:56;100661.00;;;14.59;100.00
61014;BME280;46899;47.542;19.082;2023-05-25T03:52:58;100657.09;;;14.68;100.00
61014;BME280;46899;47.542;19.082;2023-05-25T03:56:01;100657.59;;;14.76;100.00
61014;BME280;46899;47.542;19.082;2023-05-25T03:59:04;100666.94;;;14.81;100.00
61014;BME280;46899;47.542;19.082;2023-05-25T04:02:06;100662.16;;;14.89;100.00
61014;BME280;46899;47.542;19.082;2023-05-25T04:05:09;100673.19;;;14.96;100.00
61014;BME280;46899;47.542;19.082;2023-05-25T04:08:12;100669.59;;;14.98;100.00
61014;BME280;46899;47.542;19.082;2023-05-25T04:11:15;100678.56;;;15.12;100.00
61014;BME280;46899;47.542;19.082;2023-05-25T04:14:18;100678.97;;;15.21;100.00
61014;BME280;46899;47.542;19.082;2023-05-25T04:17:23;100681.06;;;15.32;100.00
61014;BME280;46899;47.542;19.082;2023-05-25T04:20:26;100673.94;;;15.52;100.00
61014;BME280;46899;47.542;19.082;2023-05-25T04:23:29;100689.44;;;15.74;100.00
61014;BME280;46899;47.542;19.082;2023-05-25T04:26:32;100686.06;;;15.89;100.00
61014;BME280;46899;47.542;19.082;2023-05-25T04:29:35;100690.31;;;16.24;100.00
61014;BME280;46899;47.542;19.082;2023-05-25T04:32:40;100688.47;;;16.42;100.00
61014;BME280;46899;47.542;19.082;2023-05-25T04:35:47;100689.56;;;16.55;100.00
61014;BME280;46899;47.542;19.082;2023-05-25T04:38:51;100693.38;;;16.81;100.00
61014;BME280;46899;47.542;19.082;2023-05-25T04:41:57;100700.25;;;16.99;100.00
61014;BME280;46899;47.542;19.082;2023-05-25T04:45:00;100700.16;;;17.16;100.00
61014;BME280;46899;47.542;19.082;2023-05-25T04:48:03;100691.91;;;17.22;100.00
61014;BME280;46899;47.542;19.082;2023-05-25T04:51:06;100700.81;;;17.35;100.00
61014;BME280;46899;47.542;19.082;2023-05-25T04:54:09;100697.50;;;17.32;100.00
61014;BME280;46899;47.542;19.082;2023-05-25T04:57:15;100697.69;;;17.29;100.00
61014;BME280;46899;47.542;19.082;2023-05-25T05:00:18;100701.97;;;17.45;100.00
61014;BME280;46899;47.542;19.082;2023-05-25T05:03:22;100687.84;;;17.62;100.00
61014;BME280;46899;47.542;19.082;2023-05-25T05:06:26;100698.72;;;17.86;100.00
61014;BME280;46899;47.542;19.082;2023-05-25T05:09:29;100709.59;;;18.09;99.50
61014;BME280;46899;47.542;19.082;2023-05-25T05:12:32;100708.00;;;18.21;98.47
61014;BME280;46899;47.542;19.082;2023-05-25T05:15:35;100705.63;;;18.46;96.35
61014;BME280;46899;47.542;19.082;2023-05-25T05:18:37;100705.63;;;18.46;97.12
61014;BME280;46899;47.542;19.082;2023-05-25T05:21:40;100714.59;;;18.42;96.51
61014;BME280;46899;47.542;19.082;2023-05-25T05:24:43;100712.75;;;18.44;97.46
61014;BME280;46899;47.542;19.082;2023-05-25T05:27:46;100711.97;;;18.28;98.34
61014;BME280;46899;47.542;19.082;2023-05-25T05:30:50;100707.66;;;18.41;97.36
61014;BME280;46899;47.542;19.082;2023-05-25T05:33:52;100705.50;;;18.48;97.05
61014;BME280;46899;47.542;19.082;2023-05-25T05:36:55;100704.66;;;18.61;96.85
61014;BME280;46899;47.542;19.082;2023-05-25T05:40:00;100718.75;;;18.88;95.04
61014;BME280;46899;47.542;19.082;2023-05-25T05:43:02;100707.94;;;19.46;90.82
61014;BME280;46899;47.542;19.082;2023-05-25T05:46:05;100711.63;;;19.44;91.14
61014;BME280;46899;47.542;19.082;2023-05-25T05:49:08;100711.47;;;19.33;91.29
61014;BME280;46899;47.542;19.082;2023-05-25T05:52:13;100718.28;;;19.23;92.41
61014;BME280;46899;47.542;19.082;2023-05-25T05:55:16;100719.97;;;19.50;90.73
61014;BME280;46899;47.542;19.082;2023-05-25T05:58:18;100725.53;;;19.72;89.49
61014;BME280;46899;47.542;19.082;2023-05-25T06:01:21;100730.00;;;19.85;89.41
61014;BME280;46899;47.542;19.082;2023-05-25T06:04:24;100731.44;;;19.76;89.59
61014;BME280;46899;47.542;19.082;2023-05-25T06:07:30;100731.81;;;19.57;90.04
61014;BME280;46899;47.542;19.082;2023-05-25T06:10:36;100734.72;;;19.67;89.37
61014;BME280;46899;47.542;19.082;2023-05-25T06:13:39;100736.47;;;19.81;89.07
61014;BME280;46899;47.542;19.082;2023-05-25T06:16:42;100734.78;;;19.92;88.89
61014;BME280;46899;47.542;19.082;2023-05-25T06:19:45;100733.53;;;20.10;85.64
61014;BME280;46899;47.542;19.082;2023-05-25T06:22:49;100732.78;;;20.21;85.57
61014;BME280;46899;47.542;19.082;2023-05-25T06:25:52;100729.13;;;20.49;83.95
61014;BME280;46899;47.542;19.082;2023-05-25T06:28:55;100731.25;;;20.43;82.71
61014;BME280;46899;47.542;19.082;2023-05-25T06:31:58;100731.66;;;20.50;82.59
61014;BME280;46899;47.542;19.082;2023-05-25T06:35:02;100739.53;;;20.75;82.02
61014;BME280;46899;47.542;19.082;2023-05-25T06:38:05;100729.47;;;20.93;80.32
61014;BME280;46899;47.542;19.082;2023-05-25T06:41:08;100737.16;;;21.08;78.48
61014;BME280;46899;47.542;19.082;2023-05-25T06:44:14;100739.66;;;21.23;76.42
61014;BME280;46899;47.542;19.082;2023-05-25T06:47:19;100741.28;;;23.18;67.86
61014;BME280;46899;47.542;19.082;2023-05-25T06:50:21;100748.09;;;26.42;53.11
61014;BME280;46899;47.542;19.082;2023-05-25T06:53:24;100758.59;;;29.00;45.73
61014;BME280;46899;47.542;19.082;2023-05-25T06:56:26;100751.69;;;30.68;39.22
61014;BME280;46899;47.542;19.082;2023-05-25T06:59:29;100761.94;;;32.48;36.12
61014;BME280;46899;47.542;19.082;2023-05-25T07:02:33;100760.91;;;33.79;32.60
61014;BME280;46899;47.542;19.082;2023-05-25T07:05:36;100755.44;;;34.49;30.98
61014;BME280;46899;47.542;19.082;2023-05-25T07:08:38;100770.59;;;35.85;29.08
61014;BME280;46899;47.542;19.082;2023-05-25T07:11:41;100767.69;;;35.80;28.64
61014;BME280;46899;47.542;19.082;2023-05-25T07:14:43;100766.25;;;35.11;29.75
61014;BME280;46899;47.542;19.082;2023-05-25T07:17:49;100768.50;;;35.61;28.61
61014;BME280;46899;47.542;19.082;2023-05-25T07:20:51;100778.56;;;36.46;27.68
61014;BME280;46899;47.542;19.082;2023-05-25T07:23:54;100764.25;;;36.96;27.24
61014;BME280;46899;47.542;19.082;2023-05-25T07:26:57;100769.91;;;34.96;29.37
61014;BME280;46899;47.542;19.082;2023-05-25T07:30:00;100768.94;;;32.57;33.08
61014;BME280;46899;47.542;19.082;2023-05-25T07:33:02;100764.47;;;31.13;36.35
61014;BME280;46899;47.542;19.082;2023-05-25T07:36:05;100760.59;;;31.16;35.63
61014;BME280;46899;47.542;19.082;2023-05-25T07:39:08;100760.75;;;32.50;33.10
61014;BME280;46899;47.542;19.082;2023-05-25T07:42:12;100769.72;;;34.36;30.62
61014;BME280;46899;47.542;19.082;2023-05-25T07:45:14;100758.22;;;33.43;31.38
61014;BME280;46899;47.542;19.082;2023-05-25T07:48:19;100761.06;;;34.81;29.58
61014;BME280;46899;47.542;19.082;2023-05-25T07:51:22;100766.00;;;35.05;28.83
61014;BME280;46899;47.542;19.082;2023-05-25T07:54:27;100766.34;;;35.43;28.40
61014;BME280;46899;47.542;19.082;2023-05-25T07:57:29;100763.78;;;37.50;25.62
61014;BME280;46899;47.542;19.082;2023-05-25T08:00:32;100767.41;;;38.49;24.17
61014;BME280;46899;47.542;19.082;2023-05-25T08:03:35;100777.50;;;39.21;23.50
61014;BME280;46899;47.542;19.082;2023-05-25T08:06:51;100779.59;;;39.01;23.34
61014;BME280;46899;47.542;19.082;2023-05-25T08:09:53;100772.59;;;40.47;21.92
61014;BME280;46899;47.542;19.082;2023-05-25T08:12:56;100758.34;;;38.55;23.27
61014;BME280;46899;47.542;19.082;2023-05-25T08:16:00;100758.87;;;38.21;24.49
61014;BME280;46899;47.542;19.082;2023-05-25T08:19:02;100755.41;;;39.41;22.98
61014;BME280;46899;47.542;19.082;2023-05-25T08:22:05;100762.31;;;39.55;22.81
61014;BME280;46899;47.542;19.082;2023-05-25T08:25:08;100773.28;;;40.08;22.15
61014;BME280;46899;47.542;19.082;2023-05-25T08:28:11;100776.28;;;40.29;21.54
61014;BME280;46899;47.542;19.082;2023-05-25T08:31:13;100764.47;;;36.94;24.99
61014;BME280;46899;47.542;19.082;2023-05-25T08:34:16;100760.94;;;36.81;25.45
61014;BME280;46899;47.542;19.082;2023-05-25T08:37:18;100764.59;;;38.38;23.52
61014;BME280;46899;47.542;19.082;2023-05-25T08:40:24;100764.62;;;37.06;24.95
61014;BME280;46899;47.542;19.082;2023-05-25T08:43:29;100760.91;;;37.83;24.14
61014;BME280;46899;47.542;19.082;2023-05-25T08:46:32;100755.06;;;38.71;23.16
61014;BME280;46899;47.542;19.082;2023-05-25T08:49:37;100763.31;;;38.58;23.44
61014;BME280;46899;47.542;19.082;2023-05-25T08:52:42;100763.13;;;38.60;24.18
61014;BME280;46899;47.542;19.082;2023-05-25T08:55:46;100755.47;;;38.68;23.51
61014;BME280;46899;47.542;19.082;2023-05-25T08:59:01;100761.22;;;39.33;23.24
61014;BME280;46899;47.542;19.082;2023-05-25T09:05:13;100766.81;;;39.79;22.25
61014;BME280;46899;47.542;19.082;2023-05-25T09:08:16;100764.88;;;38.90;24.06
61014;BME280;46899;47.542;19.082;2023-05-25T09:11:20;100756.25;;;36.50;26.72
61014;BME280;46899;47.542;19.082;2023-05-25T09:14:40;100750.41;;;36.14;27.71
61014;BME280;46899;47.542;19.082;2023-05-25T09:17:47;100745.97;;;33.61;31.24
61014;BME280;46899;47.542;19.082;2023-05-25T09:20:49;100751.78;;;31.22;35.45
61014;BME280;46899;47.542;19.082;2023-05-25T09:23:52;100744.12;;;28.85;40.41
61014;BME280;46899;47.542;19.082;2023-05-25T09:26:55;100731.34;;;28.19;43.50
61014;BME280;46899;47.542;19.082;2023-05-25T09:29:58;100739.34;;;27.13;46.05
61014;BME280;46899;47.542;19.082;2023-05-25T09:33:11;100743.62;;;28.04;44.46
61014;BME280;46899;47.542;19.082;2023-05-25T09:36:14;100745.31;;;28.57;43.40
61014;BME280;46899;47.542;19.082;2023-05-25T09:39:17;100739.59;;;28.52;44.04
61014;BME280;46899;47.542;19.082;2023-05-25T09:42:20;100741.84;;;28.38;43.41
61014;BME280;46899;47.542;19.082;2023-05-25T09:45:23;100748.87;;;26.98;46.96
61014;BME280;46899;47.542;19.082;2023-05-25T09:48:26;100732.84;;;26.15;49.71
61014;BME280;46899;47.542;19.082;2023-05-25T09:51:30;100743.00;;;26.58;49.26
61014;BME280;46899;47.542;19.082;2023-05-25T09:54:35;100752.72;;;26.50;49.93
61014;BME280;46899;47.542;19.082;2023-05-25T09:57:37;100753.16;;;27.09;49.11
61014;BME280;46899;47.542;19.082;2023-05-25T10:00:40;100757.97;;;26.78;48.95
61014;BME280;46899;47.542;19.082;2023-05-25T10:03:45;100751.28;;;26.55;49.98
61014;BME280;46899;47.542;19.082;2023-05-25T10:07:05;100739.38;;;26.50;50.70
61014;BME280;46899;47.542;19.082;2023-05-25T10:10:08;100741.87;;;27.42;48.27
61014;BME280;46899;47.542;19.082;2023-05-25T10:13:11;100742.28;;;28.00;46.54
61014;BME280;46899;47.542;19.082;2023-05-25T10:16:16;100732.00;;;27.78;45.88
61014;BME280;46899;47.542;19.082;2023-05-25T10:19:20;100741.13;;;27.50;47.40
61014;BME280;46899;47.542;19.082;2023-05-25T10:22:31;100734.00;;;27.41;47.35
61014;BME280;46899;47.542;19.082;2023-05-25T10:28:40;100732.66;;;26.82;48.29
61014;BME280;46899;47.542;19.082;2023-05-25T10:31:45;100721.84;;;26.74;48.23
61014;BME280;46899;47.542;19.082;2023-05-25T10:34:49;100723.56;;;27.65;46.19
61014;BME280;46899;47.542;19.082;2023-05-25T10:37:52;100714.19;;;27.34;46.97
61014;BME280;46899;47.542;19.082;2023-05-25T10:40:55;100727.00;;;28.44;44.90
61014;BME280;46899;47.542;19.082;2023-05-25T10:43:59;100724.13;;;28.45;44.09
61014;BME280;46899;47.542;19.082;2023-05-25T10:47:02;100721.37;;;27.86;45.99
61014;BME280;46899;47.542;19.082;2023-05-25T10:50:06;100719.44;;;28.14;44.94
61014;BME280;46899;47.542;19.082;2023-05-25T10:53:12;100718.37;;;27.89;45.01
61014;BME280;46899;47.542;19.082;2023-05-25T10:56:17;100715.84;;;27.62;46.85
61014;BME280;46899;47.542;19.082;2023-05-25T10:59:26;100723.75;;;27.54;45.12
61014;BME280;46899;47.542;19.082;2023-05-25T11:02:29;100703.31;;;28.06;43.68
61014;BME280;46899;47.542;19.082;2023-05-25T11:05:39;100705.84;;;28.33;44.11
61014;BME280;46899;47.542;19.082;2023-05-25T11:08:55;100698.66;;;28.59;42.23
61014;BME280;46899;47.542;19.082;2023-05-25T11:12:00;100708.66;;;27.45;45.11
61014;BME280;46899;47.542;19.082;2023-05-25T11:15:08;100702.44;;;27.27;46.80
61014;BME280;46899;47.542;19.082;2023-05-25T11:18:15;100701.19;;;26.76;46.81
61014;BME280;46899;47.542;19.082;2023-05-25T11:24:29;100697.44;;;26.60;45.57
61014;BME280;46899;47.542;19.082;2023-05-25T11:27:40;100688.66;;;27.04;44.50
61014;BME280;46899;47.542;19.082;2023-05-25T11:30:46;100688.28;;;27.17;45.40
61014;BME280;46899;47.542;19.082;2023-05-25T11:33:48;100673.63;;;28.17;43.99
61014;BME280;46899;47.542;19.082;2023-05-25T11:36:58;100690.31;;;28.11;44.48
61014;BME280;46899;47.542;19.082;2023-05-25T11:40:05;100689.97;;;27.88;45.80
61014;BME280;46899;47.542;19.082;2023-05-25T11:43:08;100678.03;;;28.00;44.83
61014;BME280;46899;47.542;19.082;2023-05-25T11:46:11;100672.31;;;27.77;45.73
61014;BME280;46899;47.542;19.082;2023-05-25T11:49:14;100672.53;;;27.41;46.36
61014;BME280;46899;47.542;19.082;2023-05-25T11:52:18;100672.53;;;27.84;45.43
61014;BME280;46899;47.542;19.082;2023-05-25T11:55:21;100661.81;;;27.84;45.95
61014;BME280;46899;47.542;19.082;2023-05-25T11:58:23;100674.94;;;27.34;46.17
61014;BME280;46899;47.542;19.082;2023-05-25T12:01:26;100669.03;;;26.95;46.35
61014;BME280;46899;47.542;19.082;2023-05-25T12:04:29;100659.62;;;26.64;47.58
61014;BME280;46899;47.542;19.082;2023-05-25T12:07:33;100647.19;;;26.82;47.36
61014;BME280;46899;47.542;19.082;2023-05-25T12:10:47;100653.31;;;27.10;46.81
61014;BME280;46899;47.542;19.082;2023-05-25T12:13:52;100646.69;;;27.14;46.44
61014;BME280;46899;47.542;19.082;2023-05-25T12:16:54;100645.06;;;26.59;47.82
61014;BME280;46899;47.542;19.082;2023-05-25T12:19:57;100656.88;;;26.56;48.15
61014;BME280;46899;47.542;19.082;2023-05-25T12:23:00;100644.84;;;26.70;46.71
61014;BME280;46899;47.542;19.082;2023-05-25T12:26:12;100637.50;;;26.54;47.07
61014;BME280;46899;47.542;19.082;2023-05-25T12:29:15;100639.41;;;27.06;47.52
61014;BME280;46899;47.542;19.082;2023-05-25T12:32:18;100634.69;;;27.00;47.15
61014;BME280;46899;47.542;19.082;2023-05-25T12:35:21;100632.00;;;27.00;46.09
61014;BME280;46899;47.542;19.082;2023-05-25T12:38:23;100638.34;;;26.99;46.17
61014;BME280;46899;47.542;19.082;2023-05-25T12:41:26;100643.63;;;27.44;45.01
61014;BME280;46899;47.542;19.082;2023-05-25T12:44:29;100635.44;;;27.28;45.32
61014;BME280;46899;47.542;19.082;2023-05-25T12:47:35;100636.38;;;27.19;46.36
61014;BME280;46899;47.542;19.082;2023-05-25T12:50:37;100633.53;;;27.03;47.22
61014;BME280;46899;47.542;19.082;2023-05-25T12:53:47;100635.59;;;26.91;48.37
61014;BME280;46899;47.542;19.082;2023-05-25T12:56:56;100639.94;;;26.75;47.66
61014;BME280;46899;47.542;19.082;2023-05-25T12:59:59;100637.78;;;26.51;47.92
61014;BME280;46899;47.542;19.082;2023-05-25T13:03:01;100633.09;;;26.35;48.08
61014;BME280;46899;47.542;19.082;2023-05-25T13:06:04;100617.19;;;25.97;49.45
61014;BME280;46899;47.542;19.082;2023-05-25T13:09:08;100612.50;;;26.09;49.65
61014;BME280;46899;47.542;19.082;2023-05-25T13:12:11;100612.75;;;26.25;49.05
61014;BME280;46899;47.542;19.082;2023-05-25T13:15:15;100613.47;;;26.54;48.62
61014;BME280;46899;47.542;19.082;2023-05-25T13:18:19;100615.28;;;26.54;48.02
61014;BME280;46899;47.542;19.082;2023-05-25T13:21:22;100601.00;;;26.08;47.67
61014;BME280;46899;47.542;19.082;2023-05-25T13:24:24;100596.66;;;26.07;48.81
61014;BME280;46899;47.542;19.082;2023-05-25T13:27:27;100602.63;;;26.56;47.62
61014;BME280;46899;47.542;19.082;2023-05-25T13:30:31;100587.34;;;27.28;45.60
61014;BME280;46899;47.542;19.082;2023-05-25T13:33:33;100582.78;;;27.90;45.65
61014;BME280;46899;47.542;19.082;2023-05-25T13:36:36;100585.75;;;27.87;46.06
61014;BME280;46899;47.542;19.082;2023-05-25T13:39:38;100583.56;;;28.08;45.42
61014;BME280;46899;47.542;19.082;2023-05-25T13:43:01;100576.88;;;28.04;46.18
61014;BME280;46899;47.542;19.082;2023-05-25T13:46:24;100581.19;;;28.30;43.99
61014;BME280;46899;47.542;19.082;2023-05-25T13:49:56;100572.25;;;27.88;44.25
61014;BME280;46899;47.542;19.082;2023-05-25T13:53:18;100560.69;;;27.36;45.39
61014;BME280;46899;47.542;19.082;2023-05-25T13:56:41;100558.91;;;27.01;46.32
61014;BME280;46899;47.542;19.082;2023-05-25T13:59:43;100561.16;;;26.34;47.26
61014;BME280;46899;47.542;19.082;2023-05-25T14:02:46;100559.69;;;26.49;47.23
61014;BME280;46899;47.542;19.082;2023-05-25T14:05:49;100552.47;;;26.32;47.78
61014;BME280;46899;47.542;19.082;2023-05-25T14:08:51;100549.41;;;26.27;48.63
61014;BME280;46899;47.542;19.082;2023-05-25T14:11:54;100546.09;;;26.06;49.72
61014;BME280;46899;47.542;19.082;2023-05-25T14:14:57;100552.94;;;25.91;49.84
61014;BME280;46899;47.542;19.082;2023-05-25T14:18:00;100542.91;;;25.65;50.63
61014;BME280;46899;47.542;19.082;2023-05-25T14:21:02;100548.19;;;25.75;50.26
61014;BME280;46899;47.542;19.082;2023-05-25T14:24:05;100546.75;;;25.90;49.70
61014;BME280;46899;47.542;19.082;2023-05-25T14:27:07;100548.81;;;25.59;49.88
61014;BME280;46899;47.542;19.082;2023-05-25T14:30:10;100549.37;;;25.53;50.61
61014;BME280;46899;47.542;19.082;2023-05-25T14:33:13;100539.44;;;25.55;50.42
61014;BME280;46899;47.542;19.082;2023-05-25T14:36:17;100533.50;;;25.71;49.80
61014;BME280;46899;47.542;19.082;2023-05-25T14:39:19;100539.72;;;25.89;49.97
61014;BME280;46899;47.542;19.082;2023-05-25T14:42:22;100536.66;;;25.84;49.75
61014;BME280;46899;47.542;19.082;2023-05-25T14:45:24;100527.22;;;25.62;50.80
61014;BME280;46899;47.542;19.082;2023-05-25T14:48:27;100529.78;;;25.45;51.82
61014;BME280;46899;47.542;19.082;2023-05-25T14:51:29;100523.91;;;25.78;51.40
61014;BME280;46899;47.542;19.082;2023-05-25T14:54:32;100522.53;;;26.11;51.44
61014;BME280;46899;47.542;19.082;2023-05-25T14:57:34;100527.44;;;26.06;51.66
61014;BME280;46899;47.542;19.082;2023-05-25T15:00:38;100537.09;;;25.79;52.56
61014;BME280;46899;47.542;19.082;2023-05-25T15:03:40;100531.31;;;25.84;52.28
61014;BME280;46899;47.542;19.082;2023-05-25T15:06:43;100510.72;;;25.86;51.83
61014;BME280;46899;47.542;19.082;2023-05-25T15:09:48;100520.38;;;25.87;50.98
61014;BME280;46899;47.542;19.082;2023-05-25T15:12:51;100521.50;;;25.85;51.80
61014;BME280;46899;47.542;19.082;2023-05-25T15:15:53;100529.75;;;25.91;52.04
61014;BME280;46899;47.542;19.082;2023-05-25T15:18:58;100525.41;;;25.90;50.63
61014;BME280;46899;47.542;19.082;2023-05-25T15:22:01;100522.16;;;25.96;50.55
61014;BME280;46899;47.542;19.082;2023-05-25T15:25:04;100519.53;;;25.87;50.73
61014;BME280;46899;47.542;19.082;2023-05-25T15:28:06;100520.94;;;25.91;49.60
61014;BME280;46899;47.542;19.082;2023-05-25T15:31:09;100517.06;;;26.03;49.80
61014;BME280;46899;47.542;19.082;2023-05-25T15:34:11;100514.38;;;26.03;51.73
61014;BME280;46899;47.542;19.082;2023-05-25T15:37:14;100520.12;;;26.08;52.27
61014;BME280;46899;47.542;19.082;2023-05-25T15:40:16;100503.41;;;26.15;52.13
61014;BME280;46899;47.542;19.082;2023-05-25T15:43:19;100509.59;;;26.16;52.26
61014;BME280;46899;47.542;19.082;2023-05-25T15:46:22;100503.72;;;26.03;51.85
61014;BME280;46899;47.542;19.082;2023-05-25T15:49:24;100514.19;;;25.87;52.52
61014;BME280;46899;47.542;19.082;2023-05-25T15:52:27;100496.50;;;25.49;53.40
61014;BME280;46899;47.542;19.082;2023-05-25T15:55:30;100508.47;;;25.45;54.50
61014;BME280;46899;47.542;19.082;2023-05-25T15:58:32;100507.97;;;25.68;53.10